Standish, MI

5:46 AM EDT on August 29, 2014 (GMT -0400)
Pinconning farm country, (Pintucky Hawg Farm) | Change Station
CLOSE
Current Station
Personal Weather Station
Location: Pinconning, MI
Elevation: 623 ft
Nearby Weather Stations

Elev 623 ft 43.82 °N, 84.03 °W | Updated 13 minutes ago

Partly Cloudy
Partly Cloudy
57.2 °F
Feels Like 57.2 °F
N
0.0
Wind Variable Wind from SW

Today
High -- | Low -- °F
--% Chance of Precip.
Yesterday
High -- | Low -- °F
Precip. -- in
6:55 AM 8:16 PM
Waxing Crescent, 13% visible
Pressure 30.09 in
Visibility 10.0 miles
Clouds Scattered Clouds 9000 ft
Dew Point 54 °F
Humidity 89%
Rainfall 0.00 in
Snow Depth Not available.
UV 0 out of 12
Pollen 9.30 out of 12
Ozone Good
PM2.5 Good
Flu Activity Not available.
METAR KIKW 290934Z AUTO 11003KT 10SM SCT090 15/10 A3009 RMK AO2 T01540103

More Conditions Fewer Conditions

Pressure 30.09 in
Visibility 10.0 miles
Clouds Scattered Clouds 9000 ft
Dew Point 54 °F
Humidity 89%
Rainfall 0.00 in
Snow Depth Not available.
UV 0 out of 12
Pollen 9.30 out of 12
Ozone Good
PM2.5 Good
Flu Activity Not available.
METAR KIKW 290934Z AUTO 11003KT 10SM SCT090 15/10 A3009 RMK AO2 T01540103

More Conditions Fewer Conditions

Nowcast | as of 5:00 am EDT on August 29, 2014

At 6 am...mostly cloudy. Temperature 55. Light winds. At 8 am...cloudy. Sprinkles likely. Temperature 56. Light winds. At 10 am...cloudy. Sprinkles likely. Temperature 62. Light winds. At 12 PM...cloudy. Sprinkles likely. Temperature 69. Southeast winds 6 mph.

×

10-Day Weather Forecast

Almanac

Astronomy

Aug. 29, 2014 Rise Set
Actual Time 6:55 AM EDT 8:16 PM EDT
Civil Twilight 6:25 AM EDT 8:46 PM EDT
Nautical Twilight 5:49 AM EDT 9:22 PM EDT
Astronomical Twilight 5:11 AM EDT 10:00 PM EDT
Moon 10:53 AM EDT 10:03 PM EDT
Length of Visible Light 14h 21m
Length of Day
13h 21m
Tomorrow will be 2m 52s shorter.
Waxing Crescent, 13% of the Moon is Illuminated
Today
Waxing Crescent
Sep 2
First Quarter
Sep 8
Full
Sep 15
Last Quarter
Sep 24
New

Today's Extremes

State Highs State Lows

Community

WunderPhotos

Upload Photos

1,748,207 photos uploaded!

Nearby

Air Quality

  Air Quality AQ Index Pollutant
Yesterday Good
OZONE
Yesterday Good
PM2.5
Current Good
PM2.5
Current Good
OZONE
Friday Good
OZONE
Friday Good
PM2.5

Snow Depth

Station Depth Elevation
No new snow has been reported.

Earthquake Activity

City Distance Mag. Time & Date
No recent earthquake activity has been reported nearby.
Minimum magnitude displayed is 2.5.

Coastal Water Temperatures

Place Temperature
Harbor Beach, MI 68.0 °F

Nearby Weather Stations